Hudson, OH (44236)

7:10 PM EST on February 14, 2016 (GMT -0500)
Western Reserve Academy | | Change Station
CLOSE
Current Station
Personal Weather Station
Location: Hudson, OH
Elevation: 1125 ft
Nearby Weather Stations

Elev 1125 ft 41.25 °N, 81.44 °W | Updated 1 second ago

Overcast
Overcast
15.9 °F
Feels Like 16 °F
N
1.0
Wind Variable Wind from SSE

Today
High -- | Low -- °F
--% Chance of Precip.
Yesterday
High -- | Low -- °F
Precip. -- in
Pressure 30.34 in
Visibility 10.0 miles
Clouds Clear
Windchill 16 °F
Dew Point 6 °F
Humidity 64%
Rainfall 0.04 in
Snow Depth Not available.
7:22 AM 5:58 PM
Waxing Crescent, 46% visible
METAR KAKR 142354Z AUTO 09003KT 10SM CLR M07/M17 A3027 RMK AO2 SLP273 T10721172 11072 21089 58012
Pressure 30.34 in
Visibility 10.0 miles
Clouds Clear
Windchill 16 °F
Dew Point 6 °F
Humidity 64%
Rainfall 0.04 in
Snow Depth Not available.
7:22 AM 5:58 PM
Waxing Crescent, 46% visible
METAR KAKR 142354Z AUTO 09003KT 10SM CLR M07/M17 A3027 RMK AO2 SLP273 T10721172 11072 21089 58012

10-Day Weather Forecast

Almanac

Astronomy

Feb. 14, 2016 Rise Set
Actual Time
Civil Twilight
Nautical Twilight
Astronomical Twilight
Moon
Length of Visible Light
Length of Day
Tomorrow will be .
, % of the Moon is Illuminated

Today's Extremes

State Highs State Lows

Community

WunderPhotos

Upload Photos

1,892,937 photos uploaded!

WunderBlog® & News

Nearby

Air Quality

  Air Quality AQ Index Pollutant
Not available.

Snow Depth

Station Depth Elevation

Earthquake Activity

City Distance Mag. Time & Date
Minimum magnitude displayed is 2.5.

Coastal Water Temperatures

Place Temperature

Stations

Nearby Weather Stations

Station Location Temp. Windchill Dew Point Humidity Wind Precip. Elev Updated Type
                   

Watches & Warnings

There are currently no watches in effect.